Devils Elbow, Missouri
Current Conditions -  °F | °C
As of 2:58 AM on Thursday 27 Nov 2014 (Local Time) from KTBN Reporting Station
Overcast Overcast  
Wind Chill: 21°   Ceiling: 700
Heat Index: 31°   Visibility: 10mi
Dew Point: 30°   Wind: 12mph
Humidity: 96%   Direction: 310°NW
Pressure: 30.36"   Gusts: 17mph
Location:  37.85°N, 92.06°W
Report Text: KTBN 270858Z AUTO 31010G15KT 10SM OVC007 M01/M01 A3036 RMK AO2 SLP292 T10071013 52029
Loading
Personal Weather Stations






























Interactive Weather Map New forecast layout! Learn more

10-Day Weather Forecast

Advertisements
Track Severe Weather on mobile